Main page
METAR-TAF:

METAR-TAF

Airports :

Chandigarh International Airport

Chandigarh, India

latitude: 30-40-29N, longitude: 76-47-26E, elevation: 314 m

Current weather observation

The report was made 52 minutes ago, at 04:30 UTC
Wind 3 kt from the South/Southeast
Temperature 28°C
Humidity 45%
Pressure 1010 hPa
Visibility: 6000 m
Few clouds at a height of 25000 ft

METAR: VICG 200430Z 15003KT 6000 FEW250 28/15 Q1010 NOSIG

Time: 10:52 (05:22 UTC)

Forecast

The report was made 7 hours and 52 minutes ago, at 21:30 UTC
Forecast valid from 20 at 00 UTC to 20 at 12 UTC
Wind 2 kt from variable directions
Visibility: 6000 m
Temporary
from 20 at 01 UTC to 20 at 02 UTC
Visibility: 4000 m
mist
Temporary
from 20 at 04 UTC to 20 at 06 UTC
Wind 8 kt from the Northwest
Visibility: 6000 m
Few clouds at a height of 3000 ft, Towering cumulus.
Scattered clouds at a height of 25000 ft

TAF: VICG 192130Z 2000/2012 VRB02KT 6000 NSC TEMPO 2001/2002 4000 BR TEMPO 2004/2006 32008KT 6000 FEW030TCU SCT250

Weather observations and forecasts of more than 4000 airports (METAR and TAF reports).

The available stations are represented by yellow and red dots on the map.

Hover mouse over dot to see the name of the station.

Then click to see weather observations and forecasts.

To change the map : click on the green buttons with a black cross to zoom in, on the green button with a dash to zoom out, or on the green arrows for adjacent maps.


METAR-TAF: